Time;durP1;ratioP1;P1;durP2;ratioP2;P2;SDS_P1;SDS_P2;PMS_P1;PMS_P2;Temp;Humidity;BMP_temperature;BMP_pressure;BME280_temperature;BME280_humidity;BME280_pressure;Samples;Min_cycle;Max_cycle;Signal;HPM_P1;HPM_P2
2023/12/23 00:01:14;;;;;;;;;0.00;0.00;;;;;13.87;100.00;101751.94;5076797;28;45403;-81
2023/12/23 00:03:39;;;;;;;;;0.00;0.00;;;;;13.93;100.00;101762.25;5075719;28;66741;-81
2023/12/23 00:06:05;;;;;;;;;0.00;0.00;;;;;13.94;100.00;101763.97;5075514;28;69213;-80
2023/12/23 00:08:31;;;;;;;;;0.00;0.00;;;;;13.89;100.00;101760.59;5076462;28;47251;-81
2023/12/23 00:10:56;;;;;;;;;0.00;0.00;;;;;13.90;100.00;101757.09;5076565;28;45382;-81
2023/12/23 00:13:21;;;;;;;;;0.00;0.00;;;;;13.81;100.00;101773.03;5075836;28;69139;-80
2023/12/23 00:15:47;;;;;;;;;0.00;0.00;;;;;13.87;100.00;101763.28;5075478;28;69821;-80
2023/12/23 00:18:12;;;;;;;;;0.00;0.00;;;;;13.90;100.00;101772.81;5076112;28;45319;-81
2023/12/23 00:20:37;;;;;;;;;0.00;0.00;;;;;13.92;100.00;101766.63;5076436;28;45420;-80
2023/12/23 00:23:04;;;;;;;;;0.00;0.00;;;;;13.92;100.00;101771.00;5076869;28;45440;-80
2023/12/23 00:25:29;;;;;;;;;0.00;0.00;;;;;13.92;100.00;101771.00;5076216;28;45467;-81
2023/12/23 00:27:54;;;;;;;;;0.00;0.00;;;;;13.94;100.00;101777.06;5056397;28;74548;-81
2023/12/23 00:30:20;;;;;;;;;0.00;0.00;;;;;13.93;100.00;101778.81;5076070;28;45295;-81
2023/12/23 00:32:46;;;;;;;;;1.00;0.00;;;;;13.94;100.00;101779.66;5075631;28;51817;-81
2023/12/23 00:35:11;;;;;;;;;0.00;0.00;;;;;13.86;100.00;101776.41;5076321;28;45459;-81
2023/12/23 00:37:37;;;;;;;;;0.00;0.00;;;;;13.92;100.00;101771.00;5076297;28;46039;-81
2023/12/23 00:40:02;;;;;;;;;0.00;0.00;;;;;13.97;100.00;101768.25;5075341;28;72037;-80
2023/12/23 00:42:28;;;;;;;;;0.00;0.00;;;;;13.99;100.00;101777.78;5076256;28;45411;-80
2023/12/23 00:44:53;;;;;;;;;0.00;0.00;;;;;13.97;100.00;101769.13;5076089;28;45511;-80
2023/12/23 00:47:21;;;;;;;;;0.00;0.00;;;;;14.01;100.00;101777.75;5056907;28;75436;-80
2023/12/23 00:49:46;;;;;;;;;0.00;0.00;;;;;14.02;100.00;101764.63;5055871;28;45444;-80
2023/12/23 00:52:12;;;;;;;;;0.00;0.00;;;;;14.03;100.00;101768.09;5055900;28;45426;-80
2023/12/23 00:54:37;;;;;;;;;0.00;0.00;;;;;14.06;100.00;101765.38;5051583;28;59806;-81
2023/12/23 00:57:03;;;;;;;;;0.00;0.00;;;;;14.05;100.00;101769.78;5074847;28;76686;-81
2023/12/23 00:59:28;;;;;;;;;0.00;0.00;;;;;14.06;100.00;101768.00;5076116;28;45352;-80
2023/12/23 01:01:53;;;;;;;;;0.00;0.00;;;;;14.06;100.00;101771.50;5074876;28;68310;-81
2023/12/23 01:04:19;;;;;;;;;0.00;0.00;;;;;14.00;100.00;101761.16;5075181;28;61872;-81
2023/12/23 01:06:44;;;;;;;;;0.00;0.00;;;;;14.04;100.00;101749.75;5075749;28;45273;-81
2023/12/23 01:09:09;;;;;;;;;0.00;0.00;;;;;14.00;100.00;101748.09;5074896;28;73129;-81
2023/12/23 01:11:34;;;;;;;;;0.00;0.00;;;;;13.91;100.00;101743.97;5075104;28;58961;-81
2023/12/23 01:14:00;;;;;;;;;0.00;0.00;;;;;13.92;100.00;101750.91;5074946;28;63044;-81
2023/12/23 01:16:25;;;;;;;;;0.00;0.00;;;;;13.84;100.00;101742.41;5074666;28;69027;-80
2023/12/23 01:18:50;;;;;;;;;0.00;0.00;;;;;13.88;100.00;101754.53;5074729;28;74105;-81
2023/12/23 01:21:20;;;;;;;;;0.00;0.00;;;;;13.98;100.00;101747.28;5056862;28;63106;-81
2023/12/23 01:23:45;;;;;;;;;0.00;0.00;;;;;13.91;100.00;101756.19;5075532;28;45492;-81
2023/12/23 01:26:10;;;;;;;;;0.00;0.00;;;;;13.90;100.00;101764.94;5075107;28;62143;-81
2023/12/23 01:28:35;;;;;;;;;0.00;0.00;;;;;13.94;100.00;101764.81;5074642;28;73178;-80
2023/12/23 01:31:01;;;;;;;;;0.00;0.00;;;;;13.92;100.00;101756.16;5074422;28;65262;-81
2023/12/23 01:33:26;;;;;;;;;0.00;0.00;;;;;13.97;100.00;101761.28;5074432;28;70309;-81
2023/12/23 01:35:51;;;;;;;;;0.00;0.00;;;;;13.99;100.00;101762.09;5074417;28;72673;-80
2023/12/23 01:38:17;;;;;;;;;0.00;0.00;;;;;14.03;100.00;101765.50;5074656;28;70972;-81
2023/12/23 01:40:42;;;;;;;;;0.00;0.00;;;;;14.02;100.00;101761.13;5078415;28;45287;-81
2023/12/23 01:43:07;;;;;;;;;0.00;0.00;;;;;14.05;100.00;101768.91;5078042;28;70372;-80
2023/12/23 01:45:33;;;;;;;;;0.00;0.00;;;;;14.02;100.00;101763.75;5074130;28;75298;-81
2023/12/23 01:48:00;;;;;;;;;0.00;0.00;;;;;14.06;100.00;101757.53;5058425;28;45697;-80
2023/12/23 01:50:26;;;;;;;;;0.00;0.00;;;;;14.05;100.00;101748.81;5058909;28;45357;-80
2023/12/23 01:52:53;;;;;;;;;0.00;0.00;;;;;14.05;100.00;101746.22;5057993;28;61924;-80
2023/12/23 01:55:19;;;;;;;;;0.00;0.00;;;;;14.07;100.00;101752.25;5076928;28;46335;-80
2023/12/23 01:57:44;;;;;;;;;0.00;0.00;;;;;13.98;100.00;101747.28;5077575;28;72916;-82
2023/12/23 02:00:10;;;;;;;;;0.00;0.00;;;;;14.04;100.00;101739.28;5078524;28;45365;-80
2023/12/23 02:02:38;;;;;;;;;0.00;0.00;;;;;14.04;100.00;101734.03;5078717;28;45289;-80
2023/12/23 02:05:05;;;;;;;;;0.00;0.00;;;;;14.12;100.00;101723.34;5078004;28;45503;-81
2023/12/23 02:07:30;;;;;;;;;0.00;0.00;;;;;14.05;100.00;101722.66;5078419;28;45369;-80
2023/12/23 02:09:55;;;;;;;;;0.00;0.00;;;;;14.02;100.00;101727.09;5059571;28;69335;-80
2023/12/23 02:12:36;;;;;;;;;0.00;0.00;;;;;14.08;100.00;101716.47;5078442;28;45201;-81
2023/12/23 02:15:08;;;;;;;;;0.00;0.00;;;;;14.08;100.00;101724.34;5060146;28;45440;-81
2023/12/23 02:17:34;;;;;;;;;0.00;0.00;;;;;14.06;100.00;101713.91;5078411;28;45371;-81
2023/12/23 02:19:59;;;;;;;;;0.00;0.00;;;;;14.11;100.00;101713.75;5078299;28;45299;-81
2023/12/23 02:22:25;;;;;;;;;0.00;0.00;;;;;14.08;100.00;101713.88;5077509;28;69859;-80
2023/12/23 02:24:50;;;;;;;;;0.00;0.00;;;;;14.14;100.00;101724.16;5076945;28;75573;-81
2023/12/23 02:27:19;;;;;;;;;0.00;0.00;;;;;14.14;100.00;101726.78;5076653;28;73303;-80
2023/12/23 02:29:45;;;;;;;;;0.00;0.00;;;;;14.19;100.00;101731.88;5078511;28;45396;-80
2023/12/23 02:32:12;;;;;;;;;0.00;0.00;;;;;14.20;100.00;101730.97;5058601;28;70017;-81
2023/12/23 02:34:38;;;;;;;;;0.00;0.00;;;;;14.17;100.00;101728.44;5078062;28;45404;-80
2023/12/23 02:37:03;;;;;;;;;0.00;0.00;;;;;14.16;100.00;101727.59;5059945;28;45388;-80
2023/12/23 02:39:29;;;;;;;;;0.00;0.00;;;;;14.20;100.00;101720.50;5078440;28;45421;-81
2023/12/23 02:41:54;;;;;;;;;0.00;0.00;;;;;14.18;100.00;101725.78;5077280;28;54388;-81
2023/12/23 02:44:19;;;;;;;;;0.00;0.00;;;;;14.18;100.00;101715.31;5076665;28;74149;-81
2023/12/23 02:46:44;;;;;;;;;0.00;0.00;;;;;14.19;100.00;101714.41;5063876;28;73194;-81
2023/12/23 02:49:10;;;;;;;;;0.00;0.00;;;;;14.22;100.00;101726.56;5056858;28;69154;-81
2023/12/23 02:51:35;;;;;;;;;0.00;0.00;;;;;14.20;100.00;101723.13;5057106;28;45351;-80
2023/12/23 02:54:01;;;;;;;;;0.00;0.00;;;;;14.21;100.00;101719.59;5074491;28;75827;-81
2023/12/23 02:56:26;;;;;;;;;3.33;2.00;;;;;14.23;100.00;101730.91;5076138;28;75013;-81
2023/12/23 02:58:51;;;;;;;;;0.00;0.00;;;;;14.25;100.00;101727.34;5059398;28;48806;-81
2023/12/23 03:01:20;;;;;;;;;0.00;0.00;;;;;14.27;100.00;101732.53;5077789;28;45395;-81
2023/12/23 03:03:45;;;;;;;;;0.00;0.00;;;;;14.27;100.00;101732.53;5077488;28;45395;-81
2023/12/23 03:06:14;;;;;;;;;0.00;0.00;;;;;14.25;100.00;101732.56;5076649;28;73044;-81
2023/12/23 03:08:40;;;;;;;;;0.00;0.00;;;;;14.26;100.00;101736.03;5077811;28;45331;-82
2023/12/23 03:11:05;;;;;;;;;0.00;0.00;;;;;14.30;100.00;101735.03;5077029;28;45577;-81
2023/12/23 03:13:31;;;;;;;;;0.00;0.00;;;;;14.28;100.00;101744.69;5076381;28;75562;-81
2023/12/23 03:15:56;;;;;;;;;0.00;0.00;;;;;14.29;100.00;101735.97;5076714;28;73319;-80
2023/12/23 03:18:21;;;;;;;;;0.00;0.00;;;;;14.31;100.00;101742.00;5077448;28;45712;-80
2023/12/23 03:20:47;;;;;;;;;0.00;0.00;;;;;14.33;100.00;101738.44;5076158;28;70519;-80
2023/12/23 03:23:13;;;;;;;;;0.00;0.00;;;;;14.32;100.00;101743.75;5059173;28;45408;-80
2023/12/23 03:25:38;;;;;;;;;0.00;0.00;;;;;14.37;100.00;101754.06;5058976;28;45278;-80
2023/12/23 03:28:03;;;;;;;;;0.00;0.00;;;;;14.34;100.00;101741.94;5077440;28;45802;-80
2023/12/23 03:30:29;;;;;;;;;0.00;0.00;;;;;14.34;100.00;101739.31;5077347;28;45529;-80
2023/12/23 03:32:54;;;;;;;;;0.00;0.00;;;;;14.35;100.00;101730.53;5077028;28;45457;-80
2023/12/23 03:35:19;;;;;;;;;0.00;0.00;;;;;14.35;100.00;101727.06;5076850;28;53778;-81
2023/12/23 03:37:45;;;;;;;;;0.00;0.00;;;;;14.38;100.00;101719.13;5076394;28;67622;-80
2023/12/23 03:40:11;;;;;;;;;0.00;0.00;;;;;14.35;100.00;101704.34;5076822;28;45424;-81
2023/12/23 03:42:38;;;;;;;;;0.00;0.00;;;;;14.32;100.00;101688.75;5076676;28;46605;-80
2023/12/23 03:45:05;;;;;;;;;0.00;0.00;;;;;14.29;100.00;101691.44;5076753;28;46076;-80
2023/12/23 03:47:30;;;;;;;;;0.00;0.00;;;;;14.24;100.00;101688.09;5076976;28;45398;-80
2023/12/23 03:49:56;;;;;;;;;0.00;0.00;;;;;14.28;100.00;101685.34;5076840;28;50529;-81
2023/12/23 03:52:21;;;;;;;;;0.00;0.00;;;;;14.27;100.00;101683.63;5076358;28;45666;-80
2023/12/23 03:54:46;;;;;;;;;0.00;0.00;;;;;14.24;100.00;101699.41;5076594;28;45507;-80
2023/12/23 03:57:12;;;;;;;;;0.00;0.00;;;;;14.30;100.00;101698.38;5057829;28;67804;-80
2023/12/23 03:59:39;;;;;;;;;0.00;0.00;;;;;14.29;100.00;101697.53;5058526;28;49070;-80
2023/12/23 04:02:04;;;;;;;;;0.00;0.00;;;;;14.20;100.00;101702.19;5075074;28;46298;-80
2023/12/23 04:04:29;;;;;;;;;0.00;0.00;;;;;14.20;100.00;101694.31;5075189;28;69236;-80
2023/12/23 04:06:55;;;;;;;;;0.00;0.00;;;;;14.20;100.00;101692.56;5075909;28;69614;-81
2023/12/23 04:09:20;;;;;;;;;0.00;0.00;;;;;14.20;100.00;101687.31;5075394;28;70325;-80
2023/12/23 04:11:46;;;;;;;;;0.00;0.00;;;;;14.20;100.00;101678.63;5076131;28;46014;-81
2023/12/23 04:14:11;;;;;;;;;0.00;0.00;;;;;14.15;100.00;101676.09;5076731;28;45382;-80
2023/12/23 04:16:39;;;;;;;;;0.00;0.00;;;;;14.07;100.00;101660.63;5075606;28;64919;-80
2023/12/23 04:19:05;;;;;;;;;0.00;0.00;;;;;13.92;100.00;101669.78;5076374;28;45458;-81
2023/12/23 04:21:31;;;;;;;;;0.00;0.00;;;;;14.03;100.00;101645.06;5076337;28;45391;-80
2023/12/23 04:23:58;;;;;;;;;0.00;0.00;;;;;13.96;100.00;101667.09;5076101;28;45313;-80
2023/12/23 04:26:24;;;;;;;;;0.00;0.00;;;;;14.02;100.00;101667.78;5076541;28;45697;-80
2023/12/23 04:28:49;;;;;;;;;0.00;0.00;;;;;13.93;100.00;101660.19;5058421;28;45585;-79
2023/12/23 04:31:15;;;;;;;;;0.00;0.00;;;;;13.92;100.00;101656.69;5075454;28;66648;-81
2023/12/23 04:33:40;;;;;;;;;0.00;0.00;;;;;14.05;100.00;101669.44;5057931;28;45283;-81
2023/12/23 04:36:06;;;;;;;;;0.00;0.00;;;;;14.02;100.00;101662.53;5075686;28;61661;-81
2023/12/23 04:38:31;;;;;;;;;0.00;0.00;;;;;13.92;100.00;101663.69;5057875;28;45314;-81
2023/12/23 04:40:57;;;;;;;;;0.00;0.00;;;;;13.96;100.00;101670.56;5076028;28;46096;-81
2023/12/23 04:43:22;;;;;;;;;0.00;0.00;;;;;13.98;100.00;101663.50;5075149;28;73122;-80
2023/12/23 04:45:48;;;;;;;;;0.00;0.00;;;;;14.02;100.00;101646.84;5070912;28;45356;-80
2023/12/23 04:48:13;;;;;;;;;0.00;0.00;;;;;14.07;100.00;101652.78;5055901;28;45471;-80
2023/12/23 04:50:39;;;;;;;;;0.00;0.00;;;;;14.00;100.00;101651.22;5069486;28;75815;-80
2023/12/23 04:53:04;;;;;;;;;0.00;0.00;;;;;14.08;100.00;101659.75;5075825;28;45396;-81
2023/12/23 04:55:29;;;;;;;;;0.00;0.00;;;;;13.96;100.00;101667.94;5075225;28;68101;-80
2023/12/23 04:57:55;;;;;;;;;0.00;0.00;;;;;14.09;100.00;101671.06;5076051;28;45372;-80
2023/12/23 05:00:20;;;;;;;;;0.00;0.00;;;;;14.09;100.00;101664.06;5056529;28;74809;-81
2023/12/23 05:02:45;;;;;;;;;0.00;0.00;;;;;14.11;100.00;101666.63;5075112;28;72044;-81
2023/12/23 05:05:11;;;;;;;;;0.00;0.00;;;;;14.16;100.00;101674.38;5056932;28;69404;-81
2023/12/23 05:07:36;;;;;;;;;0.00;0.00;;;;;14.12;100.00;101668.38;5075295;28;52757;-81
2023/12/23 05:10:01;;;;;;;;;0.00;0.00;;;;;14.02;100.00;101670.41;5074438;28;75916;-80
2023/12/23 05:12:26;;;;;;;;;0.00;0.00;;;;;14.08;100.00;101667.59;5074910;28;71019;-81
2023/12/23 05:14:52;;;;;;;;;0.00;0.00;;;;;14.11;100.00;101674.50;5076625;28;68311;-81
2023/12/23 05:17:17;;;;;;;;;0.00;0.00;;;;;14.16;100.00;101666.53;5079115;28;45408;-81
2023/12/23 05:19:43;;;;;;;;;0.00;0.00;;;;;14.16;100.00;101670.00;5059816;28;75827;-80
2023/12/23 05:22:08;;;;;;;;;0.00;0.00;;;;;14.15;100.00;101665.63;5078907;28;45352;-80
2023/12/23 05:24:36;;;;;;;;;0.00;0.00;;;;;14.06;100.00;101668.53;5079408;28;45390;-80
2023/12/23 05:27:01;;;;;;;;;0.00;0.00;;;;;14.11;100.00;101664.00;5061222;28;45428;-81
2023/12/23 05:29:26;;;;;;;;;0.00;0.00;;;;;14.08;100.00;101664.13;5060723;28;50328;-81
2023/12/23 05:31:52;;;;;;;;;0.00;0.00;;;;;14.00;100.00;101666.94;5078184;28;72295;-81
2023/12/23 05:34:17;;;;;;;;;0.00;0.00;;;;;14.09;100.00;101655.34;5078363;28;68382;-81
2023/12/23 05:36:42;;;;;;;;;0.00;0.00;;;;;14.08;100.00;101657.13;5078087;28;68712;-81
2023/12/23 05:39:08;;;;;;;;;0.00;0.00;;;;;14.10;100.00;101659.69;5078811;28;45497;-80
2023/12/23 05:41:35;;;;;;;;;0.00;0.00;;;;;14.13;100.00;101651.72;5044315;28;45467;-81
2023/12/23 05:44:01;;;;;;;;;0.00;0.00;;;;;14.16;100.00;101654.28;5079138;28;45401;-80
2023/12/23 05:46:26;;;;;;;;;0.00;0.00;;;;;14.20;100.00;101658.50;5068737;28;45335;-80
2023/12/23 05:48:51;;;;;;;;;0.00;0.00;;;;;14.21;100.00;101661.97;5057715;28;75559;-80
2023/12/23 05:51:17;;;;;;;;;0.00;0.00;;;;;14.18;100.00;101652.47;5075872;28;66412;-80
2023/12/23 05:53:42;;;;;;;;;0.00;0.00;;;;;14.14;100.00;101656.94;5061023;28;45345;-80
2023/12/23 05:56:08;;;;;;;;;0.00;0.00;;;;;14.21;100.00;101673.34;5077906;28;69093;-79
2023/12/23 05:58:33;;;;;;;;;0.00;0.00;;;;;14.23;100.00;101658.44;5043717;28;46179;-81
2023/12/23 06:00:59;;;;;;;;;0.00;0.00;;;;;14.23;100.00;101674.16;5078714;28;45283;-81
2023/12/23 06:03:24;;;;;;;;;0.00;0.00;;;;;14.28;100.00;101669.63;5079009;28;45503;-81
2023/12/23 06:05:50;;;;;;;;;0.00;0.00;;;;;14.33;100.00;101672.94;5078744;28;45410;-80
2023/12/23 06:08:15;;;;;;;;;0.00;0.00;;;;;14.32;100.00;101662.56;5077639;28;73506;-80
2023/12/23 06:10:40;;;;;;;;;0.00;0.00;;;;;14.33;100.00;101670.34;5077384;28;71926;-81
2023/12/23 06:13:05;;;;;;;;;0.00;0.00;;;;;14.17;100.00;101670.84;5077837;28;62993;-81
2023/12/23 06:15:31;;;;;;;;;0.00;0.00;;;;;14.32;100.00;101673.03;5077709;28;70346;-80
2023/12/23 06:17:56;;;;;;;;;0.00;0.00;;;;;14.28;100.00;101664.41;5077458;28;65204;-81
2023/12/23 06:20:21;;;;;;;;;0.00;0.00;;;;;14.30;100.00;101669.56;5076736;28;73082;-81
2023/12/23 06:22:47;;;;;;;;;0.00;0.00;;;;;14.31;100.00;101666.06;5077674;28;69250;-80
2023/12/23 06:25:12;;;;;;;;;0.00;0.00;;;;;14.35;100.00;101680.78;5078039;28;45355;-80
2023/12/23 06:27:37;;;;;;;;;0.00;0.00;;;;;14.32;100.00;101676.50;5076300;28;75482;-81
2023/12/23 06:30:03;;;;;;;;;0.00;0.00;;;;;14.33;100.00;101674.72;5077664;28;56668;-80
2023/12/23 06:32:28;;;;;;;;;0.00;0.00;;;;;14.31;100.00;101671.28;5078362;28;45352;-81
2023/12/23 06:34:54;;;;;;;;;0.00;0.00;;;;;14.39;100.00;101671.06;5077261;28;70626;-81
2023/12/23 06:37:19;;;;;;;;;0.00;0.00;;;;;14.41;100.00;101674.50;5059259;28;65964;-80
2023/12/23 06:39:44;;;;;;;;;0.00;0.00;;;;;14.38;100.00;101674.59;5078064;28;45395;-80
2023/12/23 06:42:10;;;;;;;;;0.00;0.00;;;;;14.44;100.00;101666.56;5077480;28;69444;-80
2023/12/23 06:44:35;;;;;;;;;0.00;0.00;;;;;14.32;100.00;101683.50;5077482;28;64275;-80
2023/12/23 06:47:00;;;;;;;;;0.00;0.00;;;;;14.36;100.00;101669.41;5061548;28;75412;-80
2023/12/23 06:49:27;;;;;;;;;0.00;0.00;;;;;14.44;100.00;101666.56;5071649;28;73232;-80
2023/12/23 06:51:53;;;;;;;;;0.00;0.00;;;;;14.41;100.00;101661.41;5077715;28;45375;-80
2023/12/23 06:54:18;;;;;;;;;0.00;0.00;;;;;14.39;100.00;101666.66;5078231;28;45379;-81
2023/12/23 06:56:44;;;;;;;;;0.00;0.00;;;;;14.47;100.00;101674.31;5076894;28;73629;-80
2023/12/23 06:59:12;;;;;;;;;0.00;0.00;;;;;14.41;100.00;101680.63;5058567;28;72775;-80
2023/12/23 07:01:38;;;;;;;;;0.00;0.00;;;;;14.48;100.00;101687.34;5078007;28;45289;-81
2023/12/23 07:04:04;;;;;;;;;0.00;0.00;;;;;14.44;100.00;101682.28;5077706;28;45436;-81
2023/12/23 07:06:29;;;;;;;;;0.00;0.00;;;;;14.52;100.00;101685.50;5059541;28;47192;-81
2023/12/23 07:08:54;;;;;;;;;0.00;0.00;;;;;14.53;100.00;101690.69;5076774;28;73021;-81
2023/12/23 07:11:20;;;;;;;;;0.00;0.00;;;;;14.55;100.00;101690.66;5076747;28;69186;-81
2023/12/23 07:13:45;;;;;;;;;0.00;0.00;;;;;14.53;100.00;101693.31;5076957;28;70312;-81
2023/12/23 07:16:10;;;;;;;;;0.00;0.00;;;;;14.60;100.00;101690.53;5076618;28;71762;-80
2023/12/23 07:18:36;;;;;;;;;0.00;0.00;;;;;14.53;100.00;101690.69;5075935;28;71153;-81
2023/12/23 07:21:02;;;;;;;;;0.00;0.00;;;;;14.60;100.00;101691.41;5077276;28;46697;-80
2023/12/23 07:23:27;;;;;;;;;0.00;0.00;;;;;14.57;100.00;101686.25;5077680;28;45436;-82
2023/12/23 07:25:53;;;;;;;;;0.00;0.00;;;;;14.60;100.00;101693.16;5076850;28;62491;-81
2023/12/23 07:28:18;;;;;;;;;0.00;0.00;;;;;14.55;100.00;101702.91;5075336;28;71235;-82
2023/12/23 07:30:46;;;;;;;;;0.00;0.00;;;;;14.53;100.00;101714.28;5071926;28;59226;-81
2023/12/23 07:33:12;;;;;;;;;0.00;0.00;;;;;14.62;100.00;101712.34;5074486;28;45305;-81
2023/12/23 07:35:38;;;;;;;;;0.00;0.00;;;;;14.65;100.00;101710.47;5071044;28;45392;-80
2023/12/23 07:38:03;;;;;;;;;0.00;0.00;;;;;14.62;100.00;101712.34;5054935;28;59959;-82
2023/12/23 07:40:29;;;;;;;;;0.00;0.00;;;;;14.61;100.00;101711.47;5068691;28;47730;-84
2023/12/23 07:42:54;;;;;;;;;0.00;0.00;;;;;14.57;100.00;101722.94;5076690;28;70535;-88
2023/12/23 07:45:21;;;;;;;;;0.00;0.00;;;;;14.55;100.00;101736.97;5042997;28;54164;-89
2023/12/23 07:47:47;;;;;;;;;0.00;0.00;;;;;14.59;100.00;101736.00;5077481;28;45329;-84
2023/12/23 07:50:13;;;;;;;;;0.00;0.00;;;;;14.57;100.00;101732.53;5077444;28;45344;-88
2023/12/23 07:52:47;;;;;;;;;0.00;0.00;;;;;14.63;100.00;101716.66;5054325;28;45499;-85
2023/12/23 07:55:13;;;;;;;;;0.00;0.00;;;;;14.61;100.00;101713.22;5045803;28;46325;-86
2023/12/23 07:57:38;;;;;;;;;0.00;0.00;;;;;14.58;100.00;101698.47;5076720;28;45400;-84
2023/12/23 08:00:06;;;;;;;;;0.00;0.00;;;;;14.63;100.00;101691.31;5075710;28;55113;-84
2023/12/23 08:02:34;;;;;;;;;0.00;0.00;;;;;14.65;100.00;101693.88;5077255;28;45399;-85
2023/12/23 08:04:59;;;;;;;;;0.00;0.00;;;;;14.64;100.00;101698.28;5059107;28;45511;-86
2023/12/23 08:07:24;;;;;;;;;0.00;0.00;;;;;14.63;100.00;101686.06;5054776;28;45254;-86
2023/12/23 08:09:50;;;;;;;;;0.00;0.00;;;;;14.63;100.00;101693.91;5050753;28;68072;-86
2023/12/23 08:12:15;;;;;;;;;0.00;0.00;;;;;14.68;100.00;101691.19;5063287;28;56033;-84
2023/12/23 08:14:43;;;;;;;;;0.00;0.00;;;;;14.67;100.00;101697.31;5076864;28;71982;-90
2023/12/23 08:17:08;;;;;;;;;0.00;0.00;;;;;14.66;100.00;101693.00;5059290;28;45471;-88
2023/12/23 08:19:34;;;;;;;;;0.00;0.00;;;;;14.67;100.00;101689.44;5041976;28;45334;-89
2023/12/23 08:21:59;;;;;;;;;0.00;0.00;;;;;14.73;100.00;101701.50;5058198;28;45532;-86
2023/12/23 08:24:25;;;;;;;;;0.00;0.00;;;;;14.78;100.00;101710.09;5075081;28;74484;-85
2023/12/23 08:26:50;;;;;;;;;0.00;0.00;;;;;14.73;100.00;101717.22;5058435;28;45375;-86
2023/12/23 08:29:16;;;;;;;;;0.00;0.00;;;;;14.70;100.00;101719.03;5038967;28;63247;-88
2023/12/23 08:31:44;;;;;;;;;0.00;0.00;;;;;14.73;100.00;101733.84;5058589;28;45619;-89
2023/12/23 08:34:10;;;;;;;;;0.00;0.00;;;;;14.70;100.00;101721.66;5041789;28;47353;-86
2023/12/23 08:36:35;;;;;;;;;0.00;0.00;;;;;14.70;100.00;101726.06;5068764;28;45368;-86
2023/12/23 08:39:01;;;;;;;;;0.00;0.00;;;;;14.73;100.00;101728.59;5075478;28;60828;-86
2023/12/23 08:41:26;;;;;;;;;0.00;0.00;;;;;14.75;100.00;101744.28;5058176;28;52932;-87
2023/12/23 08:43:51;;;;;;;;;0.00;0.00;;;;;14.81;100.00;101741.47;5058030;28;65347;-84
2023/12/23 08:46:17;;;;;;;;;0.00;0.00;;;;;14.84;100.00;101743.97;5075166;28;69562;-90
2023/12/23 08:48:42;;;;;;;;;0.00;0.00;;;;;14.86;100.00;101747.41;5029859;28;45460;-84
2023/12/23 08:51:08;;;;;;;;;0.00;0.00;;;;;14.80;100.00;101745.84;5037025;28;63931;-84
2023/12/23 08:53:33;;;;;;;;;0.00;0.00;;;;;14.82;100.00;101748.41;5037694;28;45588;-84
2023/12/23 08:55:59;;;;;;;;;0.00;0.00;;;;;14.75;100.00;101749.50;5055844;28;45416;-84
2023/12/23 08:58:25;;;;;;;;;0.00;0.00;;;;;14.84;100.00;101736.97;5067960;28;45309;-85
2023/12/23 09:00:51;;;;;;;;;0.00;0.00;;;;;14.81;100.00;101728.34;5075695;28;45500;-86
2023/12/23 09:03:16;;;;;;;;;0.00;0.00;;;;;14.77;100.00;101724.13;5057724;28;47052;-83
2023/12/23 09:05:42;;;;;;;;;0.00;0.00;;;;;14.78;100.00;101720.56;5057858;28;45367;-84
2023/12/23 09:08:08;;;;;;;;;0.00;0.00;;;;;14.79;100.00;101717.91;5047065;28;45612;-85
2023/12/23 09:10:33;;;;;;;;;0.00;0.00;;;;;14.75;100.00;101725.94;5072903;28;46938;-83
2023/12/23 09:12:59;;;;;;;;;0.00;0.00;;;;;14.84;100.00;101733.47;5074942;28;61793;-85
2023/12/23 09:15:24;;;;;;;;;0.00;0.00;;;;;14.86;100.00;101724.69;5022699;28;45574;-83
2023/12/23 09:17:50;;;;;;;;;0.00;0.00;;;;;14.90;100.00;101728.06;5054405;28;45606;-82
2023/12/23 09:20:15;;;;;;;;;0.00;0.00;;;;;14.90;100.00;101718.44;5075294;28;45711;-84
2023/12/23 09:22:41;;;;;;;;;0.00;0.00;;;;;15.02;100.00;101714.56;5075019;28;46054;-82
2023/12/23 09:25:06;;;;;;;;;0.00;0.00;;;;;14.96;100.00;101708.66;5075393;28;45412;-83
2023/12/23 09:27:32;;;;;;;;;0.00;0.00;;;;;15.02;100.00;101704.06;5042470;28;45400;-82
2023/12/23 09:29:58;;;;;;;;;0.00;0.00;;;;;15.06;100.00;101710.94;5074708;28;45513;-83
2023/12/23 09:32:24;;;;;;;;;0.00;0.00;;;;;15.17;100.00;101704.47;5074504;28;45471;-84
2023/12/23 09:34:49;;;;;;;;;0.00;0.00;;;;;15.21;100.00;101706.97;5075312;28;45310;-83
2023/12/23 09:37:15;;;;;;;;;0.00;0.00;;;;;15.27;100.00;101716.41;5057330;28;45305;-84
2023/12/23 09:39:40;;;;;;;;;0.00;0.00;;;;;15.18;100.00;101728.03;5076919;27;45441;-84
2023/12/23 09:42:06;;;;;;;;;0.00;0.00;;;;;15.28;100.00;101728.59;5094539;27;73971;-84
2023/12/23 09:44:32;;;;;;;;;0.00;0.00;;;;;15.31;100.00;101714.53;5045947;28;45536;-83
2023/12/23 09:46:57;;;;;;;;;0.00;0.00;;;;;15.28;100.00;101726.84;5056609;28;58853;-83
2023/12/23 09:49:24;;;;;;;;;0.00;0.00;;;;;15.30;100.00;101716.28;5056676;28;45393;-83
2023/12/23 09:51:50;;;;;;;;;0.00;0.00;;;;;15.29;100.00;101728.53;5073571;28;45502;-84
2023/12/23 09:54:19;;;;;;;;;0.00;0.00;;;;;15.33;100.00;101731.94;5075062;28;45503;-83
2023/12/23 09:56:47;;;;;;;;;0.00;0.00;;;;;15.24;100.00;101729.59;5075280;28;45569;-83
2023/12/23 09:59:12;;;;;;;;;0.00;0.00;;;;;15.36;100.00;101716.09;5057258;28;45474;-83
2023/12/23 10:01:38;;;;;;;;;0.00;0.00;;;;;15.25;100.00;101721.69;5075391;28;75636;-85
2023/12/23 10:04:03;;;;;;;;;0.00;0.00;;;;;15.32;100.00;101722.31;5060188;28;54194;-84
2023/12/23 10:06:28;;;;;;;;;0.00;0.00;;;;;15.37;100.00;101730.06;5078677;28;45350;-84
2023/12/23 10:08:54;;;;;;;;;0.00;0.00;;;;;15.32;100.00;101722.31;5077924;28;69607;-84
2023/12/23 10:11:19;;;;;;;;;0.00;0.00;;;;;15.31;100.00;101722.41;5074042;28;70247;-83
2023/12/23 10:13:45;;;;;;;;;0.00;0.00;;;;;15.30;100.00;101732.00;5060276;28;45470;-85
2023/12/23 10:16:10;;;;;;;;;0.00;0.00;;;;;15.33;100.00;101723.22;5059749;28;65414;-84
2023/12/23 10:18:38;;;;;;;;;0.00;0.00;;;;;15.31;100.00;101725.88;5060443;28;45312;-84
2023/12/23 10:21:04;;;;;;;;;0.00;0.00;;;;;15.35;100.00;101717.00;5060505;28;46117;-83
2023/12/23 10:23:29;;;;;;;;;0.00;0.00;;;;;15.38;100.00;101713.41;5078549;28;45297;-86
2023/12/23 10:25:57;;;;;;;;;0.00;0.00;;;;;15.40;100.00;101724.72;5078911;28;45386;-90
2023/12/23 10:28:24;;;;;;;;;0.00;0.00;;;;;15.40;100.00;101722.94;5041774;28;45502;-89
2023/12/23 10:30:49;;;;;;;;;0.00;0.00;;;;;15.44;100.00;101723.72;5061308;28;46329;-90
2023/12/23 10:33:17;;;;;;;;;0.00;0.00;;;;;15.51;100.00;101721.72;5061251;28;45363;-89
2023/12/23 10:35:53;;;;;;;;;0.00;0.00;;;;;15.57;100.00;101716.28;5079185;28;45345;-88
2023/12/23 10:41:57;;;;;;;;;0.00;0.00;;;;;15.63;100.00;101706.41;5167456;22;45473;-85
2023/12/23 10:44:23;;;;;;;;;0.00;0.00;;;;;15.65;100.00;101699.34;5057746;28;45346;-85
2023/12/23 10:46:50;;;;;;;;;0.00;0.00;;;;;15.65;100.00;101698.47;5029500;28;45475;-84
2023/12/23 10:49:16;;;;;;;;;0.00;0.00;;;;;15.65;100.00;101695.84;5023311;28;45413;-84
2023/12/23 10:51:42;;;;;;;;;0.00;0.00;;;;;15.68;100.00;101701.88;5039552;28;45385;-85
2023/12/23 10:54:10;;;;;;;;;0.00;0.00;;;;;15.63;100.00;101689.81;5039511;28;45388;-85
2023/12/23 10:56:37;;;;;;;;;0.00;0.00;;;;;15.73;100.00;101692.97;5023200;28;45357;-85
2023/12/23 10:59:03;;;;;;;;;0.00;0.00;;;;;15.72;100.00;101678.13;5039454;28;45477;-83
2023/12/23 11:01:31;;;;;;;;;0.00;0.00;;;;;15.72;100.00;101686.88;5057553;28;47351;-83
2023/12/23 11:04:02;;;;;;;;;0.00;0.00;;;;;15.77;100.00;101676.25;5039410;28;45449;-83
2023/12/23 11:06:34;;;;;;;;;0.00;0.00;;;;;15.76;100.00;101690.28;5040031;28;45411;-84
2023/12/23 11:09:01;;;;;;;;;0.00;0.00;;;;;15.77;100.00;101686.75;5039363;28;45530;-83
2023/12/23 11:11:28;;;;;;;;;0.00;0.00;;;;;15.78;100.00;101670.06;5022475;28;47353;-83
2023/12/23 11:13:54;;;;;;;;;0.00;0.00;;;;;15.84;100.00;101659.34;5038444;28;64079;-83